Time;durP1;ratioP1;P1;durP2;ratioP2;P2;SDS_P1;SDS_P2;PMS_P1;PMS_P2;Temp;Humidity;BMP_temperature;BMP_pressure;BME280_temperature;BME280_humidity;BME280_pressure;Samples;Min_cycle;Max_cycle;Signal;HPM_P1;HPM_P2
2022/12/25 08:35:21;;;;;;;8.75;2.35;;;;;;;11.70;78.79;96604.00;2100123;27;20550;-49
2022/12/25 08:36:23;;;;;;;4.53;2.85;;;;;;;11.65;78.29;96597.31;2098242;28;20650;-49
2022/12/25 08:37:25;;;;;;;4.03;2.60;;;;;;;11.81;77.99;96608.69;2100144;28;20624;-50
2022/12/25 08:38:27;;;;;;;3.40;2.50;;;;;;;11.72;78.10;96610.00;2099782;28;20191;-49
2022/12/25 08:43:22;;;;;;;4.10;2.53;;;;;;;12.07;76.76;96601.31;2083966;28;20556;-48
2022/12/25 08:44:23;;;;;;;4.90;2.05;;;;;;;12.02;76.77;96604.16;2078752;28;20344;-48
2022/12/25 08:45:25;;;;;;;4.70;2.95;;;;;;;11.79;76.95;96596.63;2072934;28;20320;-48
2022/12/25 08:46:35;;;;;;;3.45;2.50;;;;;;;11.91;77.08;96607.31;2073263;28;20197;-48
2022/12/25 08:49:40;;;;;;;3.03;1.85;;;;;;;11.85;77.47;96602.38;2108343;27;21273;-50
2022/12/25 08:50:46;;;;;;;5.85;2.72;;;;;;;12.13;76.54;96593.16;2106552;28;20199;-50
2022/12/25 08:51:47;;;;;;;5.03;2.88;;;;;;;12.59;75.27;96582.03;2108073;28;20203;-49
2022/12/25 08:52:49;;;;;;;7.47;3.05;;;;;;;12.88;74.43;96588.31;2107892;28;20228;-49
2022/12/25 08:53:52;;;;;;;4.55;2.70;;;;;;;13.28;72.87;96589.63;2106309;28;20759;-49
2022/12/25 08:54:53;;;;;;;3.75;2.50;;;;;;;13.32;71.85;96573.66;2106449;28;20226;-50
2022/12/25 08:55:59;;;;;;;6.90;3.67;;;;;;;13.78;71.13;96571.97;2099737;28;20363;-50
2022/12/25 08:57:02;;;;;;;4.63;3.20;;;;;;;13.78;71.13;96571.97;2100109;28;20191;-50
2022/12/25 08:58:04;;;;;;;5.47;2.70;;;;;;;14.33;68.43;96560.75;2106386;28;20199;-50
2022/12/25 08:59:05;;;;;;;5.45;2.90;;;;;;;14.88;67.19;96555.69;2105341;28;20233;-50
2022/12/25 09:00:08;;;;;;;4.93;2.50;;;;;;;14.40;67.72;96549.88;2107287;28;20206;-50
2022/12/25 09:01:11;;;;;;;5.82;2.83;;;;;;;14.40;67.78;96542.00;2107050;28;20234;-50
2022/12/25 09:02:12;;;;;;;4.20;2.30;;;;;;;14.74;66.91;96550.44;2107537;28;20199;-50
2022/12/25 09:03:14;;;;;;;6.25;2.50;;;;;;;14.78;66.79;96541.41;2097899;28;20277;-50
2022/12/25 09:04:15;;;;;;;9.50;2.70;;;;;;;14.88;66.32;96537.28;2090087;28;20268;-50
2022/12/25 09:05:17;;;;;;;99.25;66.68;;;;;;;14.14;68.13;96537.41;2099729;28;20195;-50
2022/12/25 09:06:18;;;;;;;143.55;95.32;;;;;;;13.85;68.73;96539.16;2107886;28;20558;-50
2022/12/25 09:17:21;;;;;;;7.20;3.22;;;;;;;13.33;71.46;96561.38;2099686;27;20549;-47
2022/12/25 09:18:23;;;;;;;5.45;2.80;;;;;;;13.69;70.81;96568.94;2098646;28;20310;-47
2022/12/25 09:19:24;;;;;;;6.65;3.47;;;;;;;14.39;68.56;96558.72;2093972;28;20623;-48
2022/12/25 09:20:26;;;;;;;6.40;2.92;;;;;;;14.83;67.56;96563.84;2091357;28;20207;-49
2022/12/25 09:21:27;;;;;;;4.80;2.70;;;;;;;15.04;65.64;96567.84;2088732;28;20214;-49
2022/12/25 09:22:28;;;;;;;4.30;2.83;;;;;;;15.11;65.64;96564.72;2090294;28;20200;-49
2022/12/25 09:23:30;;;;;;;6.20;3.15;;;;;;;15.09;65.51;96560.53;2090646;28;20199;-49
2022/12/25 09:24:32;;;;;;;6.75;3.40;;;;;;;15.62;64.31;96571.94;2088895;28;20247;-49
2022/12/25 09:25:33;;;;;;;4.90;2.83;;;;;;;15.29;65.01;96578.47;2088729;28;20199;-49
2022/12/25 09:26:36;;;;;;;4.50;2.90;;;;;;;15.34;64.27;96568.50;2089142;28;20195;-49
2022/12/25 09:27:38;;;;;;;3.28;2.00;;;;;;;15.35;64.55;96575.44;2086550;28;20204;-49
2022/12/25 09:28:40;;;;;;;5.43;2.70;;;;;;;15.46;64.01;96568.63;2088631;28;20621;-49
2022/12/25 09:29:50;;;;;;;3.15;2.00;;;;;;;15.66;63.61;96575.22;2089627;28;20229;-49
2022/12/25 09:30:52;;;;;;;3.25;2.30;;;;;;;15.12;65.29;96568.19;2091186;28;20655;-49
2022/12/25 09:31:54;;;;;;;4.75;2.35;;;;;;;15.41;64.23;96570.72;2090970;28;20231;-49
2022/12/25 09:32:55;;;;;;;5.55;2.55;;;;;;;15.74;63.68;96567.66;2086612;28;20451;-49
2022/12/25 09:33:57;;;;;;;4.90;2.40;;;;;;;15.70;63.46;96563.53;2086846;28;20201;-49
2022/12/25 09:34:58;;;;;;;5.28;3.03;;;;;;;14.94;65.41;96567.59;2090348;28;20216;-49
2022/12/25 09:36:03;;;;;;;4.35;2.83;;;;;;;15.43;64.03;96567.06;2086697;28;20196;-49
2022/12/25 09:37:05;;;;;;;3.95;1.95;;;;;;;14.03;67.41;96574.00;2089163;28;20240;-49
2022/12/25 09:38:06;;;;;;;4.57;2.38;;;;;;;13.52;69.46;96575.16;2091087;28;20195;-49
2022/12/25 09:39:07;;;;;;;5.97;2.47;;;;;;;13.57;70.06;96577.50;2087173;28;20193;-49
2022/12/25 09:40:17;;;;;;;4.50;2.90;;;;;;;14.39;67.79;96577.13;2089743;28;20223;-49
2022/12/25 09:41:27;;;;;;;5.40;2.30;;;;;;;14.01;68.97;96584.56;2096958;28;20218;-49
2022/12/25 09:42:30;;;;;;;3.70;2.35;;;;;;;14.14;67.91;96565.44;2091593;28;20217;-49
2022/12/25 09:43:38;;;;;;;5.40;2.20;;;;;;;14.64;67.26;96569.44;2089718;28;20199;-49
2022/12/25 09:44:43;;;;;;;5.22;2.50;;;;;;;14.85;66.18;96574.28;2088201;28;20232;-50
2022/12/25 09:45:46;;;;;;;4.60;2.50;;;;;;;14.89;67.18;96570.50;2087928;28;20201;-50
2022/12/25 09:46:54;;;;;;;4.85;2.40;;;;;;;14.90;66.28;96569.56;2089113;28;20211;-50
2022/12/25 09:47:56;;;;;;;4.50;2.60;;;;;;;14.31;68.84;96573.16;2090258;28;21175;-50
2022/12/25 09:49:04;;;;;;;3.40;2.30;;;;;;;14.92;67.62;96572.94;2086474;28;20215;-50
2022/12/25 09:50:36;;;;;;;3.20;2.10;;;;;;;14.89;66.44;96559.97;2104710;28;20218;-50
2022/12/25 09:51:42;;;;;;;4.47;2.78;;;;;;;15.69;64.85;96564.47;2100269;28;20200;-50
2022/12/25 09:53:05;;;;;;;4.82;2.80;;;;;;;15.77;63.82;96569.22;2086509;28;20223;-49
2022/12/25 09:54:16;;;;;;;107.30;57.80;;;;;;;16.10;62.78;96563.53;2088350;28;20547;-49
2022/12/25 09:55:19;;;;;;;33.85;20.75;;;;;;;16.18;62.26;96567.44;2089877;28;20204;-49
2022/12/25 09:56:26;;;;;;;11.73;8.70;;;;;;;15.90;62.69;96561.41;2089733;28;20200;-49
2022/12/25 09:57:28;;;;;;;6.38;3.83;;;;;;;15.66;63.83;96559.44;2091050;28;20571;-49
2022/12/25 09:58:32;;;;;;;6.05;2.25;;;;;;;15.27;64.97;96559.31;2088212;28;20274;-50
2022/12/25 09:59:34;;;;;;;4.03;2.53;;;;;;;15.49;65.76;96556.13;2085399;28;20239;-50
2022/12/25 10:01:00;;;;;;;4.18;2.67;;;;;;;15.71;63.86;96546.81;2087069;28;20247;-50
2022/12/25 10:02:39;;;;;;;4.30;2.30;;;;;;;16.24;62.87;96546.78;2090293;28;20234;-50
2022/12/25 10:04:00;;;;;;;3.60;2.30;;;;;;;15.70;63.41;96542.47;2089311;28;20196;-50
2022/12/25 10:05:13;;;;;;;6.68;2.40;;;;;;;15.14;64.89;96540.84;2092496;28;20307;-50
2022/12/25 10:06:23;;;;;;;3.90;2.03;;;;;;;15.06;65.56;96547.53;2094661;28;20196;-50
2022/12/25 10:07:24;;;;;;;3.45;2.38;;;;;;;14.93;65.35;96536.97;2089708;28;20718;-49
2022/12/25 10:08:52;;;;;;;3.70;2.60;;;;;;;14.18;67.86;96533.69;2089648;28;20234;-50
2022/12/25 10:09:58;;;;;;;4.03;2.40;;;;;;;13.90;68.57;96521.34;2089084;28;20641;-49
2022/12/25 10:11:10;;;;;;;3.70;2.30;;;;;;;13.55;69.96;96522.50;2090052;28;20250;-49
2022/12/25 10:12:31;;;;;;;4.70;2.90;;;;;;;13.95;69.41;96518.47;2091189;28;20667;-49
2022/12/25 10:13:50;;;;;;;3.45;2.42;;;;;;;14.22;69.30;96529.09;2090469;28;20547;-49
2022/12/25 10:15:02;;;;;;;3.50;2.40;;;;;;;14.47;68.49;96530.19;2085855;28;20234;-49
2022/12/25 10:16:28;;;;;;;4.65;2.40;;;;;;;14.28;68.26;96530.47;2088012;28;20200;-50
2022/12/25 10:17:51;;;;;;;3.83;2.00;;;;;;;14.83;67.08;96531.44;2090034;28;20302;-49
2022/12/25 10:19:09;;;;;;;5.65;2.75;;;;;;;14.39;67.81;96528.03;2090640;28;20204;-49
2022/12/25 10:20:38;;;;;;;3.97;2.30;;;;;;;14.27;68.78;96527.03;2089720;28;20211;-50
2022/12/25 10:21:41;;;;;;;6.45;2.75;;;;;;;14.62;67.62;96538.91;2086236;28;20200;-49
2022/12/25 10:23:04;;;;;;;3.75;2.72;;;;;;;14.11;69.03;96524.47;2087680;28;20219;-50
2022/12/25 10:24:15;;;;;;;4.32;2.38;;;;;;;13.57;70.61;96527.66;2087572;28;20288;-49
2022/12/25 10:25:22;;;;;;;3.30;2.00;;;;;;;13.38;71.33;96517.41;2089006;28;20254;-49
2022/12/25 10:26:25;;;;;;;3.13;2.10;;;;;;;14.30;69.55;96521.56;2089282;28;20200;-49
2022/12/25 10:27:39;;;;;;;5.53;2.08;;;;;;;14.41;68.87;96526.16;2090167;28;20207;-50
2022/12/25 10:28:52;;;;;;;3.90;2.15;;;;;;;14.17;69.65;96523.25;2087740;28;20195;-49
2022/12/25 10:29:54;;;;;;;4.75;2.10;;;;;;;14.40;68.00;96523.63;2086439;28;20247;-49
2022/12/25 10:31:00;;;;;;;4.55;2.15;;;;;;;14.17;68.56;96523.25;2082996;28;20196;-49
2022/12/25 10:32:03;;;;;;;4.60;2.28;;;;;;;14.07;69.50;96516.88;2084323;28;20331;-49
2022/12/25 10:33:04;;;;;;;3.42;2.00;;;;;;;12.96;72.44;96509.25;2083884;28;20648;-49
2022/12/25 10:34:09;;;;;;;2.92;1.92;;;;;;;13.49;71.90;96520.25;2082160;28;20208;-49
2022/12/25 10:35:12;;;;;;;2.95;2.15;;;;;;;13.72;71.08;96510.19;2084748;28;20234;-49
2022/12/25 10:36:17;;;;;;;3.75;1.77;;;;;;;14.10;69.51;96517.53;2080549;28;20204;-49
2022/12/25 10:37:19;;;;;;;5.70;2.50;;;;;;;13.77;70.28;96513.38;2082047;28;20204;-49
2022/12/25 10:38:21;;;;;;;3.85;1.80;;;;;;;13.74;70.23;96513.56;2068207;28;20203;-49
2022/12/25 10:39:25;;;;;;;5.82;1.98;;;;;;;13.38;71.97;96506.91;2073819;28;20225;-48
2022/12/25 10:41:02;;;;;;;2.42;1.73;;;;;;;13.63;71.17;96508.13;2082162;28;20208;-49
2022/12/25 10:42:16;;;;;;;3.72;2.03;;;;;;;13.94;70.30;96501.88;2084488;28;20229;-49
2022/12/25 10:43:25;;;;;;;3.70;2.20;;;;;;;14.00;70.49;96495.41;2084741;28;20681;-49
2022/12/25 10:44:27;;;;;;;3.20;1.65;;;;;;;13.88;70.16;96492.59;2079249;28;20251;-49
2022/12/25 10:45:28;;;;;;;2.65;1.60;;;;;;;13.66;70.56;96503.53;2084363;28;20701;-49
2022/12/25 10:46:30;;;;;;;5.07;2.03;;;;;;;14.35;69.63;96492.41;2084690;28;20804;-49
2022/12/25 10:47:41;;;;;;;2.97;1.67;;;;;;;14.43;68.59;96490.13;2084190;28;20196;-49
2022/12/25 10:48:49;;;;;;;2.40;1.48;;;;;;;14.98;67.03;96495.47;2080273;28;20255;-49
2022/12/25 10:49:51;;;;;;;2.72;1.60;;;;;;;14.93;67.16;96484.41;2081981;28;20228;-49
2022/12/25 10:50:53;;;;;;;3.63;1.70;;;;;;;15.43;65.60;96487.28;2082080;28;20200;-49
2022/12/25 10:51:55;;;;;;;2.50;1.58;;;;;;;14.59;67.22;96474.25;2084446;28;20201;-49
2022/12/25 10:53:03;;;;;;;5.00;2.42;;;;;;;14.62;67.57;96488.97;2084995;28;20640;-49
2022/12/25 10:54:30;;;;;;;6.32;1.90;;;;;;;14.76;67.59;96478.44;2083984;28;20282;-49
2022/12/25 10:55:32;;;;;;;3.38;1.80;;;;;;;14.29;68.38;96493.59;2083207;28;20229;-49
2022/12/25 10:56:33;;;;;;;2.85;1.65;;;;;;;13.77;69.90;96468.75;2083009;28;20201;-50
2022/12/25 10:57:44;;;;;;;3.63;1.98;;;;;;;14.07;69.21;96475.72;2082622;28;20216;-49
2022/12/25 10:58:45;;;;;;;3.05;1.52;;;;;;;13.87;69.82;96479.56;2083010;28;20204;-49
2022/12/25 10:59:59;;;;;;;3.80;1.70;;;;;;;14.34;69.14;96469.69;2082982;28;20310;-49
2022/12/25 11:01:07;;;;;;;8.10;4.78;;;;;;;14.55;68.72;96483.28;2089968;28;20197;-49
2022/12/25 11:02:11;;;;;;;6.38;3.85;;;;;;;14.69;68.09;96474.53;2086587;28;20550;-49
2022/12/25 11:03:25;;;;;;;4.70;2.33;;;;;;;14.63;68.18;96478.34;2085436;28;20663;-49
2022/12/25 11:04:27;;;;;;;5.05;3.38;;;;;;;14.79;67.44;96467.75;2082272;28;20225;-48
2022/12/25 11:05:31;;;;;;;3.38;1.67;;;;;;;14.86;67.54;96460.31;2080429;28;20251;-49
2022/12/25 11:06:33;;;;;;;2.13;1.27;;;;;;;14.44;67.83;96480.47;2083133;28;20232;-49
2022/12/25 11:07:45;;;;;;;4.93;1.65;;;;;;;14.47;68.57;96472.38;2080337;28;20292;-49
2022/12/25 11:08:52;;;;;;;2.33;1.50;;;;;;;14.36;68.81;96466.03;2082030;28;20254;-49
2022/12/25 11:09:57;;;;;;;2.25;1.13;;;;;;;14.07;69.97;96477.47;2083890;28;20598;-49
2022/12/25 11:11:06;;;;;;;2.60;1.50;;;;;;;14.09;70.38;96465.94;2083173;28;20248;-49
2022/12/25 11:12:18;;;;;;;6.00;1.40;;;;;;;14.18;70.01;96478.53;2079723;28;20247;-49
2022/12/25 11:13:23;;;;;;;3.60;1.98;;;;;;;14.08;70.11;96473.94;2084112;28;20667;-49
2022/12/25 11:14:26;;;;;;;3.17;1.50;;;;;;;14.11;69.75;96479.84;2083769;28;20228;-49
2022/12/25 11:15:48;;;;;;;4.65;1.75;;;;;;;13.84;70.28;96483.22;2083955;28;20208;-49
2022/12/25 11:16:49;;;;;;;4.53;1.42;;;;;;;13.85;70.64;96489.28;2084083;28;20236;-49
2022/12/25 11:17:51;;;;;;;3.58;1.55;;;;;;;14.22;69.68;96479.19;2084343;28;20255;-49
2022/12/25 11:18:53;;;;;;;4.60;1.55;;;;;;;14.30;69.44;96482.16;2080339;28;20224;-49
2022/12/25 11:19:57;;;;;;;3.40;2.13;;;;;;;14.25;69.39;96473.72;2080363;28;20264;-49
2022/12/25 11:21:02;;;;;;;3.00;1.70;;;;;;;14.23;69.57;96475.59;2082123;28;20234;-49
2022/12/25 11:22:16;;;;;;;2.80;1.50;;;;;;;14.66;68.86;96465.03;2083588;28;20200;-49
2022/12/25 11:23:20;;;;;;;3.53;1.90;;;;;;;14.66;68.18;96459.78;2084725;28;20284;-48
2022/12/25 11:24:28;;;;;;;3.38;1.55;;;;;;;14.62;68.71;96458.28;2089738;28;20223;-49
2022/12/25 11:25:30;;;;;;;3.25;1.65;;;;;;;14.83;67.72;96460.47;2087193;28;20200;-49
2022/12/25 11:26:45;;;;;;;8.02;2.10;;;;;;;14.35;68.33;96458.25;2080332;28;20197;-49
2022/12/25 11:28:02;;;;;;;3.50;1.80;;;;;;;14.35;68.91;96458.25;2082534;28;20204;-50
2022/12/25 11:29:22;;;;;;;8.13;1.83;;;;;;;14.78;67.45;96454.69;2084453;28;20196;-50
2022/12/25 11:30:24;;;;;;;6.05;1.98;;;;;;;14.82;67.74;96450.94;2084681;28;20212;-50
2022/12/25 11:31:38;;;;;;;5.03;1.70;;;;;;;15.05;67.08;96451.22;2084375;28;20361;-50
2022/12/25 11:32:47;;;;;;;2.60;1.60;;;;;;;15.09;66.84;96448.28;2085361;28;20223;-50
2022/12/25 11:33:51;;;;;;;2.85;1.65;;;;;;;15.01;66.79;96453.22;2083924;28;20197;-50
2022/12/25 11:34:55;;;;;;;2.47;1.70;;;;;;;14.80;67.43;96452.81;2079808;28;20227;-50
2022/12/25 11:35:58;;;;;;;9.10;1.65;;;;;;;14.71;67.80;96441.09;2084805;28;20512;-50
2022/12/25 11:37:01;;;;;;;2.40;1.60;;;;;;;14.67;67.56;96442.25;2084311;28;20201;-50
2022/12/25 11:38:03;;;;;;;4.07;1.60;;;;;;;14.43;68.44;96434.13;2083885;28;20252;-50
2022/12/25 11:39:19;;;;;;;3.17;1.40;;;;;;;14.33;69.31;96439.94;2080507;28;20205;-50
2022/12/25 11:40:26;;;;;;;2.22;1.33;;;;;;;14.57;68.31;96436.69;2082623;28;20208;-50
2022/12/25 11:41:33;;;;;;;1.90;1.38;;;;;;;14.88;67.87;96431.28;2083423;28;20201;-50
2022/12/25 11:42:39;;;;;;;2.58;1.40;;;;;;;15.34;67.31;96436.97;2084208;28;20203;-50
2022/12/25 11:43:48;;;;;;;2.30;1.33;;;;;;;15.88;64.82;96427.22;2085318;28;20291;-49
2022/12/25 11:44:57;;;;;;;2.42;1.45;;;;;;;15.65;64.51;96426.97;2081961;28;20224;-50
2022/12/25 11:46:32;;;;;;;3.10;1.50;;;;;;;15.77;64.31;96421.81;2084017;28;20201;-50
2022/12/25 11:47:53;;;;;;;1.63;1.10;;;;;;;15.79;64.52;96422.56;2089167;28;20287;-50
2022/12/25 11:49:05;;;;;;;2.47;1.52;;;;;;;16.34;63.40;96402.06;2090922;28;20236;-50
2022/12/25 11:50:29;;;;;;;4.20;1.30;;;;;;;16.37;61.95;96425.56;2087380;28;20216;-50
2022/12/25 11:51:36;;;;;;;3.28;1.60;;;;;;;17.11;60.54;96430.75;2076773;28;20200;-50
2022/12/25 11:52:42;;;;;;;4.95;1.40;;;;;;;17.20;60.21;96421.31;2084368;28;20232;-50
2022/12/25 11:53:52;;;;;;;2.22;1.35;;;;;;;16.95;60.23;96422.28;2080083;28;20200;-50
2022/12/25 11:54:58;;;;;;;3.25;1.55;;;;;;;16.46;61.39;96422.25;2082127;28;20227;-50
2022/12/25 11:56:07;;;;;;;3.42;1.63;;;;;;;16.58;62.04;96417.03;2083724;28;20262;-50
2022/12/25 11:57:10;;;;;;;2.72;1.15;;;;;;;16.70;61.28;96416.16;2083250;28;20208;-50
2022/12/25 11:58:26;;;;;;;1.95;1.20;;;;;;;16.60;61.11;96407.25;2084290;28;20266;-50
2022/12/25 11:59:37;;;;;;;3.35;1.20;;;;;;;16.48;61.44;96398.41;2081903;28;20266;-50
2022/12/25 12:00:41;;;;;;;1.40;0.77;;;;;;;17.53;59.60;96403.88;2085546;28;20239;-50
2022/12/25 12:01:47;;;;;;;2.85;1.45;;;;;;;17.76;58.30;96399.47;2079975;28;20204;-50
2022/12/25 12:03:02;;;;;;;2.95;1.25;;;;;;;17.76;58.01;96402.13;2083111;28;20200;-50
2022/12/25 12:04:20;;;;;;;2.15;0.95;;;;;;;17.11;59.94;96408.81;2079256;28;20196;-50
2022/12/25 12:05:37;;;;;;;2.22;1.10;;;;;;;17.70;59.07;96401.72;2082451;28;20249;-50
2022/12/25 12:06:53;;;;;;;1.88;0.90;;;;;;;17.42;59.52;96399.44;2084457;28;20208;-50
2022/12/25 12:08:00;;;;;;;2.85;1.10;;;;;;;17.68;58.59;96390.47;2083692;28;20192;-50
2022/12/25 12:09:22;;;;;;;1.75;0.90;;;;;;;17.60;58.67;96394.53;2079452;28;20205;-50
2022/12/25 12:10:36;;;;;;;1.65;1.10;;;;;;;17.34;58.90;96383.31;2082369;28;20200;-50
2022/12/25 12:11:48;;;;;;;1.95;1.00;;;;;;;17.44;59.76;96373.72;2086078;28;20199;-51
2022/12/25 12:13:17;;;;;;;5.15;1.60;;;;;;;17.05;59.96;96377.59;2081163;28;20203;-50
2022/12/25 12:14:38;;;;;;;18.83;11.60;;;;;;;16.92;60.09;96388.25;2081713;28;20201;-50
2022/12/25 12:15:45;;;;;;;2.85;1.38;;;;;;;17.99;58.31;96374.88;2083494;28;20193;-50
2022/12/25 12:16:46;;;;;;;3.33;2.10;;;;;;;17.17;59.48;96374.06;2082595;28;20265;-50
2022/12/25 12:17:48;;;;;;;1.30;0.82;;;;;;;17.01;60.59;96371.72;2083088;28;20189;-51
2022/12/25 12:18:55;;;;;;;3.85;1.35;;;;;;;17.55;59.77;96369.47;2084813;28;20200;-52
2022/12/25 12:19:57;;;;;;;2.50;1.10;;;;;;;17.52;58.46;96374.94;2083545;28;20236;-51
2022/12/25 12:21:04;;;;;;;3.55;1.10;;;;;;;16.98;60.36;96370.16;2083382;28;20192;-50
2022/12/25 12:22:06;;;;;;;2.95;0.88;;;;;;;17.55;58.21;96366.81;2083266;28;20235;-50
2022/12/25 12:23:15;;;;;;;5.95;1.38;;;;;;;17.05;59.22;96367.06;2081375;28;20640;-51
2022/12/25 12:24:21;;;;;;;4.40;1.02;;;;;;;16.60;60.34;96372.97;2081418;28;20189;-51
2022/12/25 12:25:23;;;;;;;2.47;0.90;;;;;;;16.55;60.13;96375.13;2079759;28;20200;-50
2022/12/25 12:26:28;;;;;;;1.10;0.70;;;;;;;16.27;61.03;96375.31;2080997;28;20204;-51
2022/12/25 12:27:39;;;;;;;1.70;1.00;;;;;;;15.58;62.70;96375.72;2083697;28;20262;-50
2022/12/25 12:28:45;;;;;;;2.05;1.00;;;;;;;15.23;63.18;96370.25;2083670;28;20260;-51
2022/12/25 12:29:57;;;;;;;1.95;0.90;;;;;;;15.41;63.69;96379.50;2083959;28;20742;-50
2022/12/25 12:31:06;;;;;;;3.08;0.90;;;;;;;15.80;63.09;96377.69;2084784;28;20199;-50
2022/12/25 12:32:46;;;;;;;1.40;0.90;;;;;;;16.07;62.13;96379.34;2083303;28;20192;-50
2022/12/25 12:33:55;;;;;;;2.50;1.00;;;;;;;16.75;60.38;96386.84;2084079;28;20203;-50
2022/12/25 12:34:57;;;;;;;6.28;1.15;;;;;;;17.11;59.29;96390.34;2090216;28;20251;-51
2022/12/25 12:36:00;;;;;;;2.05;1.20;;;;;;;15.93;61.35;96387.41;2089886;28;20204;-51
2022/12/25 12:37:14;;;;;;;2.20;0.90;;;;;;;16.24;60.96;96379.94;2083088;28;20782;-49
2022/12/25 12:38:25;;;;;;;3.22;0.90;;;;;;;16.81;59.29;96394.25;2082143;28;20217;-49
2022/12/25 12:39:34;;;;;;;1.58;0.80;;;;;;;16.94;59.68;96391.63;2082612;28;20338;-49
2022/12/25 12:40:42;;;;;;;2.58;0.90;;;;;;;17.42;58.84;96386.22;2082398;28;20639;-49
2022/12/25 12:41:46;;;;;;;1.50;0.90;;;;;;;17.63;56.86;96388.16;2082231;28;20196;-49
2022/12/25 12:42:49;;;;;;;2.42;1.20;;;;;;;17.40;58.28;96392.59;2082303;28;20208;-51
2022/12/25 12:43:57;;;;;;;2.53;1.00;;;;;;;16.98;59.22;96385.97;2080543;28;20197;-49
2022/12/25 12:45:17;;;;;;;1.92;1.10;;;;;;;17.01;59.17;96386.72;2082555;28;20235;-49
2022/12/25 12:46:24;;;;;;;1.67;0.80;;;;;;;17.34;58.26;96374.56;2083007;28;20671;-49
2022/12/25 12:47:42;;;;;;;1.35;0.90;;;;;;;17.28;58.17;96376.72;2081819;28;20558;-49
2022/12/25 12:48:45;;;;;;;1.27;0.68;;;;;;;17.51;57.82;96368.84;2082756;28;20193;-49
2022/12/25 12:49:56;;;;;;;2.08;1.00;;;;;;;17.34;57.78;96374.56;2082051;28;20221;-49
2022/12/25 12:51:12;;;;;;;1.95;1.00;;;;;;;17.15;58.30;96381.22;2081327;28;20283;-50
2022/12/25 12:52:24;;;;;;;1.65;1.00;;;;;;;17.47;57.25;96377.94;2079596;28;20200;-50
2022/12/25 12:53:29;;;;;;;7.75;0.90;;;;;;;17.69;57.00;96387.69;2081292;28;20243;-50
2022/12/25 12:54:31;;;;;;;1.48;0.93;;;;;;;17.86;56.80;96383.72;2080994;28;20225;-49
2022/12/25 12:55:34;;;;;;;2.13;0.90;;;;;;;17.66;56.84;96376.53;2084161;28;20200;-49
2022/12/25 12:56:36;;;;;;;3.60;0.90;;;;;;;17.76;56.44;96370.44;2083029;28;20219;-50
2022/12/25 12:57:38;;;;;;;1.55;0.98;;;;;;;17.93;56.50;96368.25;2083144;28;20224;-50
2022/12/25 12:58:48;;;;;;;1.55;0.90;;;;;;;18.44;55.63;96370.34;2079638;28;20209;-50
2022/12/25 12:59:50;;;;;;;2.05;1.00;;;;;;;18.37;55.38;96370.97;2080144;28;20229;-50
2022/12/25 13:01:02;;;;;;;1.20;0.80;;;;;;;17.97;55.88;96359.16;2085543;28;20197;-50
2022/12/25 13:02:44;;;;;;;2.20;0.80;;;;;;;17.86;56.91;96356.50;2081737;28;20219;-50
2022/12/25 13:04:12;;;;;;;1.30;0.70;;;;;;;17.70;57.07;96351.56;2082710;28;20308;-50
2022/12/25 13:05:37;;;;;;;1.80;1.00;;;;;;;17.61;56.26;96353.13;2081162;28;20217;-50
2022/12/25 13:06:38;;;;;;;1.90;0.80;;;;;;;17.63;56.30;96356.50;2082814;28;20675;-50
2022/12/25 13:08:00;;;;;;;1.30;0.88;;;;;;;17.56;57.30;96353.50;2079434;28;20193;-50
2022/12/25 13:09:31;;;;;;;2.13;0.90;;;;;;;18.04;55.33;96354.22;2080253;28;20192;-51
2022/12/25 13:10:47;;;;;;;1.80;0.98;;;;;;;18.04;55.43;96347.16;2082531;28;20201;-50
2022/12/25 13:11:49;;;;;;;1.40;0.88;;;;;;;18.18;54.80;96356.63;2082066;28;20196;-50
2022/12/25 13:12:57;;;;;;;1.45;0.85;;;;;;;18.03;55.63;96345.47;2080262;28;20203;-50
2022/12/25 13:14:01;;;;;;;1.45;1.00;;;;;;;17.74;55.47;96356.50;2083404;28;20284;-50
2022/12/25 13:15:10;;;;;;;1.90;0.70;;;;;;;17.57;55.65;96351.69;2073894;28;20241;-51
2022/12/25 13:16:20;;;;;;;1.48;0.80;;;;;;;17.85;54.80;96346.88;2074052;28;20208;-50
2022/12/25 13:17:24;;;;;;;1.10;0.68;;;;;;;17.76;54.77;96361.66;2074973;28;20230;-50
2022/12/25 13:18:26;;;;;;;2.15;0.95;;;;;;;17.54;55.96;96358.03;2075526;28;20687;-50
2022/12/25 13:19:28;;;;;;;1.42;0.70;;;;;;;17.01;57.16;96361.16;2075197;28;20356;-50
2022/12/25 13:20:37;;;;;;;1.30;0.70;;;;;;;17.16;57.11;96361.81;2078767;28;20193;-50
2022/12/25 13:21:39;;;;;;;2.92;0.70;;;;;;;16.98;57.31;96364.88;2077914;28;20560;-50
2022/12/25 13:22:40;;;;;;;1.73;0.90;;;;;;;16.84;57.81;96361.59;2075132;28;20222;-49
2022/12/25 13:23:41;;;;;;;1.65;0.77;;;;;;;17.01;57.48;96366.44;2075282;28;20197;-49
2022/12/25 13:24:54;;;;;;;2.03;0.80;;;;;;;16.37;58.88;96372.03;2076351;28;20229;-49
2022/12/25 13:26:02;;;;;;;1.20;0.70;;;;;;;15.89;60.17;96368.34;2083336;28;20843;-49
2022/12/25 13:27:24;;;;;;;1.70;0.90;;;;;;;16.14;59.93;96371.88;2082578;28;20219;-49
2022/12/25 13:28:34;;;;;;;1.50;0.80;;;;;;;15.74;59.99;96370.22;2082187;28;20207;-49
2022/12/25 13:29:37;;;;;;;1.88;0.80;;;;;;;16.36;59.40;96371.16;2082986;28;20680;-49
2022/12/25 13:30:39;;;;;;;1.25;0.70;;;;;;;16.64;58.26;96363.88;2082990;28;20225;-50
2022/12/25 13:31:41;;;;;;;1.42;0.88;;;;;;;16.40;57.96;96327.81;2080837;28;20753;-49
2022/12/25 13:32:44;;;;;;;1.67;0.80;;;;;;;16.93;57.57;96369.66;2079470;28;20236;-49
2022/12/25 13:33:56;;;;;;;1.20;0.77;;;;;;;16.73;57.79;96370.28;2080975;28;20385;-50
2022/12/25 13:34:59;;;;;;;1.63;0.70;;;;;;;16.63;57.28;96372.75;2082077;28;20228;-49
2022/12/25 13:36:00;;;;;;;1.10;0.80;;;;;;;15.87;58.86;96372.91;2091214;28;20199;-49
2022/12/25 13:37:13;;;;;;;1.40;0.73;;;;;;;16.05;59.74;96383.06;2088834;28;20192;-49
2022/12/25 13:38:16;;;;;;;1.83;0.80;;;;;;;16.59;58.33;96371.28;2079266;28;20220;-49
2022/12/25 13:39:17;;;;;;;5.35;0.93;;;;;;;16.58;57.44;96382.78;2080108;28;20266;-49
2022/12/25 13:40:26;;;;;;;1.40;0.73;;;;;;;16.20;57.87;96373.22;2084283;28;20210;-49
2022/12/25 13:43:01;;;;;;;1.48;0.90;;;;;;;15.95;59.33;96361.81;2082909;28;20188;-49
2022/12/25 13:44:05;;;;;;;1.10;0.70;;;;;;;15.58;59.97;96375.72;2081887;28;20193;-50
2022/12/25 13:45:12;;;;;;;1.30;0.70;;;;;;;15.41;59.73;96379.50;2083060;28;20220;-49
2022/12/25 13:46:14;;;;;;;4.25;1.10;;;;;;;15.28;60.47;96374.25;2082358;28;20196;-49
2022/12/25 13:47:20;;;;;;;1.27;0.70;;;;;;;15.21;61.08;96356.34;2081715;28;20189;-50
2022/12/25 13:48:24;;;;;;;1.20;0.68;;;;;;;15.02;60.93;96357.63;2081656;28;20196;-50
2022/12/25 13:49:30;;;;;;;1.70;0.90;;;;;;;14.79;62.36;96365.25;2083091;28;20236;-49
2022/12/25 13:50:33;;;;;;;2.67;0.93;;;;;;;14.74;62.14;96362.06;2083788;28;20205;-49
2022/12/25 13:51:34;;;;;;;1.40;0.90;;;;;;;14.70;62.16;96360.56;2084126;28;20200;-49
2022/12/25 13:52:37;;;;;;;1.30;0.80;;;;;;;14.48;62.77;96359.31;2079463;28;20197;-49
2022/12/25 13:53:38;;;;;;;1.10;0.70;;;;;;;14.53;62.75;96353.78;2080253;28;20644;-49
2022/12/25 13:54:52;;;;;;;1.50;0.80;;;;;;;14.45;63.39;96359.53;2079205;28;20232;-49
2022/12/25 13:55:54;;;;;;;5.95;0.80;;;;;;;14.47;63.00;96349.75;2080768;28;20200;-49
2022/12/25 13:56:56;;;;;;;1.85;0.85;;;;;;;14.35;63.91;96358.44;2079356;28;20189;-49
2022/12/25 13:58:00;;;;;;;1.40;0.80;;;;;;;14.11;64.03;96347.72;2079439;28;20254;-49
2022/12/25 13:59:03;;;;;;;1.65;0.80;;;;;;;14.40;63.65;96348.47;2084750;28;20193;-50
2022/12/25 14:00:15;;;;;;;1.27;0.73;;;;;;;14.43;63.51;96347.44;2088844;28;20204;-49
2022/12/25 14:01:17;;;;;;;1.75;1.00;;;;;;;14.14;64.30;96352.78;2082944;28;20212;-50
2022/12/25 14:02:23;;;;;;;1.58;0.77;;;;;;;14.11;64.04;96356.44;2083348;28;20204;-49
2022/12/25 14:03:34;;;;;;;3.10;0.80;;;;;;;14.33;63.81;96360.31;2081790;28;20246;-51
2022/12/25 14:04:43;;;;;;;1.10;0.70;;;;;;;14.21;63.99;96352.28;2081059;28;20696;-49
2022/12/25 14:05:57;;;;;;;2.17;0.88;;;;;;;14.10;64.64;96353.91;2083485;28;20201;-49
2022/12/25 14:07:08;;;;;;;3.38;0.90;;;;;;;13.94;65.17;96348.78;2084937;28;20199;-49
2022/12/25 14:08:23;;;;;;;2.08;0.80;;;;;;;14.28;64.32;96352.72;2084683;28;20650;-49
2022/12/25 14:09:24;;;;;;;1.30;0.70;;;;;;;14.39;64.21;96356.47;2083171;28;20228;-50
2022/12/25 14:10:32;;;;;;;1.52;0.88;;;;;;;14.27;64.34;96358.94;2083879;28;20212;-49
2022/12/25 14:11:34;;;;;;;1.95;0.77;;;;;;;14.22;64.37;96353.13;2080785;28;20200;-49
2022/12/25 14:12:35;;;;;;;3.17;0.90;;;;;;;14.30;64.38;96371.03;2082055;28;20584;-49